Time;durP1;ratioP1;P1;durP2;ratioP2;P2;SDS_P1;SDS_P2;PMS_P1;PMS_P2;Temp;Humidity;BMP_temperature;BMP_pressure;BME280_temperature;BME280_humidity;BME280_pressure;Samples;Min_cycle;Max_cycle;Signal;HPM_P1;HPM_P2
2022/01/22 00:01:12;;;;;;;1.70;0.80;;;10.90;47.20;;;;;;215617;1293;26555;-53
2022/01/22 00:06:16;;;;;;;3.20;1.10;;;10.90;47.60;;;;;;216233;1294;25337;-56
2022/01/22 00:11:20;;;;;;;2.60;1.20;;;10.90;47.20;;;;;;215632;1293;24476;-55
2022/01/22 00:16:24;;;;;;;3.20;1.20;;;11.00;47.00;;;;;;215379;1293;22596;-56
2022/01/22 00:21:27;;;;;;;2.60;1.10;;;11.00;47.10;;;;;;215724;1293;24261;-56
2022/01/22 00:26:31;;;;;;;3.60;1.10;;;11.00;47.10;;;;;;215985;1294;22567;-54
2022/01/22 00:31:35;;;;;;;1.40;0.80;;;11.00;47.10;;;;;;215858;1293;22572;-54
2022/01/22 00:36:39;;;;;;;2.40;1.30;;;11.00;47.10;;;;;;215811;1293;22625;-56
2022/01/22 00:41:42;;;;;;;2.00;1.10;;;11.00;47.00;;;;;;215779;1293;26591;-54
2022/01/22 00:46:46;;;;;;;2.70;1.00;;;10.90;47.20;;;;;;215722;1293;22569;-56
2022/01/22 00:51:51;;;;;;;2.30;1.10;;;11.00;47.10;;;;;;215872;1293;22567;-55
2022/01/22 00:56:54;;;;;;;2.40;1.00;;;11.00;47.20;;;;;;215885;1293;24425;-54
2022/01/22 01:01:59;;;;;;;2.90;1.10;;;11.00;47.20;;;;;;215725;1293;25365;-56
2022/01/22 01:07:04;;;;;;;1.40;0.70;;;10.90;47.20;;;;;;215951;1292;26590;-58
2022/01/22 01:12:12;;;;;;;2.40;1.10;;;11.00;47.00;;;;;;215916;1293;22688;-52
2022/01/22 01:17:57;;;;;;;3.50;1.10;;;11.00;47.40;;;;;;215763;1293;25320;-54
2022/01/22 01:33:53;;;;;;;2.10;0.80;;;10.90;47.50;;;;;;215863;1293;22605;-53
2022/01/22 01:39:00;;;;;;;2.40;1.10;;;11.00;47.20;;;;;;216095;1293;22745;-57
2022/01/22 01:44:05;;;;;;;2.20;0.90;;;10.90;47.20;;;;;;215843;1293;25679;-55
2022/01/22 01:49:31;;;;;;;3.90;1.10;;;10.90;47.30;;;;;;215612;1293;24214;-55
2022/01/22 01:54:58;;;;;;;3.20;1.10;;;10.90;47.50;;;;;;215892;1293;24312;-53
2022/01/22 02:00:03;;;;;;;2.10;0.80;;;10.90;47.30;;;;;;215891;1293;25508;-54
2022/01/22 02:05:24;;;;;;;;;;;11.00;47.50;;;;;;215717;1293;24336;-56
2022/01/22 02:10:37;;;;;;;2.40;1.00;;;11.00;47.10;;;;;;215724;1293;24257;-53
2022/01/22 02:26:35;;;;;;;2.60;1.10;;;10.90;47.20;;;;;;215766;1294;25410;-55
2022/01/22 02:31:48;;;;;;;2.10;0.70;;;11.00;47.60;;;;;;215633;1293;25443;-57
2022/01/22 02:37:06;;;;;;;;;;;10.90;47.50;;;;;;216114;1293;25356;-55
2022/01/22 02:42:11;;;;;;;1.70;1.00;;;11.00;46.80;;;;;;215737;1294;22563;-52
2022/01/22 02:47:16;;;;;;;1.50;0.70;;;11.00;47.10;;;;;;215934;1294;22649;-55
2022/01/22 02:52:25;;;;;;;2.00;0.80;;;11.00;47.50;;;;;;215639;1294;22775;-57
2022/01/22 02:57:32;;;;;;;2.40;0.70;;;10.90;47.50;;;;;;215735;1294;22582;-54
2022/01/22 03:02:37;;;;;;;1.80;0.70;;;11.00;47.20;;;;;;215694;1293;25372;-54
2022/01/22 03:07:49;;;;;;;2.50;1.00;;;11.00;47.50;;;;;;215907;1293;22592;-55
2022/01/22 03:19:15;;;;;;;2.20;0.80;;;11.00;47.20;;;;;;215730;1293;22601;-56
2022/01/22 03:29:12;;;;;;;1.50;0.80;;;11.00;47.30;;;;;;215793;1293;22574;-53
2022/01/22 03:34:16;;;;;;;2.30;0.90;;;11.00;47.30;;;;;;215804;1293;25305;-52
2022/01/22 03:39:20;;;;;;;2.20;0.80;;;10.90;47.30;;;;;;215640;1294;22612;-55
2022/01/22 03:44:24;;;;;;;1.70;1.10;;;10.90;47.30;;;;;;215791;1293;25589;-56
2022/01/22 03:49:32;;;;;;;1.70;0.80;;;10.90;47.60;;;;;;215832;1293;24385;-55
2022/01/22 03:54:37;;;;;;;2.10;0.80;;;11.00;47.30;;;;;;215842;1293;22595;-56
2022/01/22 03:59:41;;;;;;;2.50;0.70;;;11.00;47.30;;;;;;215425;1293;22682;-57
2022/01/22 04:05:02;;;;;;;2.60;1.10;;;11.00;47.60;;;;;;215741;1293;22582;-52
2022/01/22 04:10:08;;;;;;;2.30;0.90;;;11.00;47.30;;;;;;215682;1293;25264;-56
2022/01/22 04:15:15;;;;;;;2.90;0.90;;;11.00;47.30;;;;;;215560;1296;24282;-55
2022/01/22 04:25:46;;;;;;;2.60;0.80;;;11.00;47.40;;;;;;215655;1293;23112;-56
2022/01/22 04:30:49;;;;;;;1.60;0.80;;;10.90;47.30;;;;;;215724;1293;22571;-57
2022/01/22 04:35:53;;;;;;;2.10;0.90;;;11.00;47.40;;;;;;215985;1293;24432;-55
2022/01/22 04:40:59;;;;;;;2.10;0.80;;;10.90;47.30;;;;;;216110;1293;22584;-54
2022/01/22 04:46:23;;;;;;;1.40;0.70;;;10.90;47.30;;;;;;215974;1293;24614;-52
2022/01/22 04:56:50;;;;;;;2.90;1.10;;;10.90;48.00;;;;;;215835;1293;22573;-58
2022/01/22 05:01:54;;;;;;;2.00;1.00;;;10.90;47.40;;;;;;215856;1293;25551;-57
2022/01/22 05:07:19;;;;;;;2.70;1.10;;;10.90;47.70;;;;;;215894;1293;25360;-56
2022/01/22 05:12:53;;;;;;;2.80;0.80;;;10.90;47.40;;;;;;214923;1293;22585;-56
2022/01/22 05:17:57;;;;;;;2.90;0.90;;;11.00;47.60;;;;;;215243;1294;24269;-55
2022/01/22 05:23:13;;;;;;;2.10;1.00;;;10.90;47.30;;;;;;216138;1293;25441;-54
2022/01/22 05:28:48;;;;;;;2.20;0.90;;;10.90;47.40;;;;;;216023;1293;26272;-56
2022/01/22 05:39:24;;;;;;;1.90;0.90;;;10.90;47.40;;;;;;215521;1293;22525;-56
2022/01/22 05:44:31;;;;;;;2.20;0.80;;;10.90;47.50;;;;;;215857;1293;22652;-56
2022/01/22 05:49:40;;;;;;;2.90;1.20;;;10.90;47.20;;;;;;216126;1293;22605;-55
2022/01/22 05:55:07;;;;;;;2.00;1.00;;;10.90;47.30;;;;;;215803;1293;199600;-53
2022/01/22 06:00:11;;;;;;;3.10;1.20;;;11.00;47.30;;;;;;216106;1293;23116;-54
2022/01/22 06:05:23;;;;;;;3.30;1.00;;;11.00;47.40;;;;;;215661;1293;22573;-55
2022/01/22 06:10:29;;;;;;;1.90;1.00;;;10.90;47.50;;;;;;215719;1293;23909;-57
2022/01/22 06:15:33;;;;;;;2.30;1.10;;;10.90;47.40;;;;;;215549;1293;22594;-56
2022/01/22 06:21:04;;;;;;;3.30;1.30;;;10.90;47.50;;;;;;215202;1296;25364;-56
2022/01/22 06:26:08;;;;;;;2.40;1.10;;;10.90;47.80;;;;;;215459;1296;25381;-53
2022/01/22 06:31:14;;;;;;;3.00;1.10;;;10.90;47.70;;;;;;215216;1296;24274;-56
2022/01/22 06:36:24;;;;;;;2.70;1.00;;;10.90;47.80;;;;;;215417;1296;24416;-57
2022/01/22 06:41:44;;;;;;;2.30;1.00;;;10.80;47.50;;;;;;215493;1294;25539;-57
2022/01/22 06:47:10;;;;;;;3.40;1.20;;;10.90;47.50;;;;;;215524;1293;22783;-53
2022/01/22 06:52:39;;;;;;;1.70;0.90;;;10.90;47.40;;;;;;215695;1293;22820;-55
2022/01/22 06:57:48;;;;;;;1.70;0.80;;;10.80;47.50;;;;;;215669;1293;25473;-54
2022/01/22 07:03:04;;;;;;;3.30;1.10;;;10.90;47.80;;;;;;215755;1293;24341;-53
2022/01/22 07:08:09;;;;;;;1.90;1.00;;;10.80;47.50;;;;;;215802;1293;22593;-55
2022/01/22 07:13:15;;;;;;;2.80;1.60;;;10.90;47.40;;;;;;215646;1293;25314;-55
2022/01/22 07:18:22;;;;;;;2.40;1.10;;;10.80;47.40;;;;;;215637;1293;25531;-57
2022/01/22 07:28:44;;;;;;;2.90;1.20;;;10.90;47.30;;;;;;215631;1293;24408;-54
2022/01/22 07:33:50;;;;;;;2.20;1.10;;;10.90;47.80;;;;;;215683;1293;24481;-53
2022/01/22 07:38:55;;;;;;;2.80;1.40;;;10.80;47.50;;;;;;215742;1293;22576;-56
2022/01/22 07:44:07;;;;;;;4.20;1.20;;;10.90;47.50;;;;;;215704;1293;22631;-56
2022/01/22 07:49:37;;;;;;;2.80;1.30;;;11.00;47.30;;;;;;215598;1293;24274;-55
2022/01/22 07:54:51;;;;;;;1.90;1.00;;;11.00;47.20;;;;;;215790;1293;22764;-55
2022/01/22 07:59:58;;;;;;;2.20;1.10;;;11.00;47.20;;;;;;215804;1293;22650;-58
2022/01/22 08:05:02;;;;;;;3.30;1.30;;;11.00;47.10;;;;;;215634;1293;22824;-55
2022/01/22 08:10:27;;;;;;;2.80;1.10;;;11.00;47.10;;;;;;215649;1293;22793;-53
2022/01/22 08:15:39;;;;;;;4.20;1.30;;;11.10;47.40;;;;;;215607;1293;22622;-54
2022/01/22 08:20:48;;;;;;;3.80;1.40;;;11.10;47.00;;;;;;215635;1293;22589;-56
2022/01/22 08:26:28;;;;;;;2.10;1.10;;;11.20;46.90;;;;;;215441;1293;24327;-54
2022/01/22 08:32:03;;;;;;;3.30;1.20;;;11.20;46.80;;;;;;215659;1293;22576;-56
2022/01/22 08:37:09;;;;;;;2.40;1.20;;;11.30;46.80;;;;;;215799;1292;22589;-53
2022/01/22 08:42:16;;;;;;;2.20;1.20;;;11.30;46.50;;;;;;215837;1293;24253;-54
2022/01/22 08:47:25;;;;;;;2.10;0.90;;;11.30;46.70;;;;;;215773;1293;24779;-55
2022/01/22 08:52:33;;;;;;;2.60;1.40;;;11.30;46.80;;;;;;215914;1293;24428;-57
2022/01/22 08:57:59;;;;;;;5.30;1.80;;;11.40;46.70;;;;;;215662;1293;25341;-54
2022/01/22 09:03:15;;;;;;;2.40;1.10;;;11.50;47.00;;;;;;215863;1293;24269;-56
2022/01/22 09:08:50;;;;;;;2.90;1.10;;;11.50;46.60;;;;;;215694;1293;23062;-57
2022/01/22 09:14:09;;;;;;;2.40;1.20;;;11.50;46.50;;;;;;215512;1293;22601;-58
2022/01/22 09:19:22;;;;;;;2.10;1.10;;;11.60;46.50;;;;;;215932;1293;24419;-56
2022/01/22 09:24:32;;;;;;;3.50;1.30;;;11.60;46.60;;;;;;215686;1293;22609;-57
2022/01/22 09:29:59;;;;;;;2.90;1.00;;;11.70;46.60;;;;;;215671;1293;22874;-53
2022/01/22 09:35:23;;;;;;;2.40;1.20;;;11.70;46.50;;;;;;215922;1292;23136;-56
2022/01/22 09:41:06;;;;;;;4.30;1.10;;;11.70;46.50;;;;;;215685;1293;25519;-57
2022/01/22 09:46:33;;;;;;;2.20;1.30;;;11.80;46.50;;;;;;215870;1293;25486;-55
2022/01/22 09:51:59;;;;;;;2.30;1.20;;;11.80;46.50;;;;;;215575;1293;24439;-58
2022/01/22 09:57:21;;;;;;;;;;;11.90;46.80;;;;;;215965;1293;22579;-58
2022/01/22 10:03:00;;;;;;;3.40;1.20;;;12.00;46.40;;;;;;215881;1293;25456;-54
2022/01/22 10:08:32;;;;;;;2.30;1.20;;;12.00;46.50;;;;;;215629;1293;22606;-55
2022/01/22 10:13:59;;;;;;;3.10;1.60;;;12.10;46.10;;;;;;215710;1293;24274;-54
2022/01/22 10:19:09;;;;;;;2.50;1.30;;;12.20;46.10;;;;;;215794;1293;22579;-54
2022/01/22 10:29:48;;;;;;;2.60;1.20;;;12.30;46.00;;;;;;215721;1293;22818;-57
2022/01/22 10:35:04;;;;;;;4.10;1.30;;;12.30;45.90;;;;;;215930;1293;23424;-55
2022/01/22 10:40:34;;;;;;;3.40;1.40;;;12.40;45.90;;;;;;215882;1291;24917;-54
2022/01/22 10:45:43;;;;;;;3.00;1.50;;;12.40;45.90;;;;;;215832;1293;24013;-57
2022/01/22 10:51:15;;;;;;;2.90;1.20;;;12.50;46.10;;;;;;215850;1293;25712;-54
2022/01/22 10:56:22;;;;;;;2.50;1.30;;;12.60;45.90;;;;;;215806;1293;22666;-57
2022/01/22 11:01:30;;;;;;;3.00;1.40;;;12.60;46.00;;;;;;215983;1293;24292;-56
2022/01/22 11:06:35;;;;;;;2.40;1.20;;;12.60;45.90;;;;;;216011;1293;22575;-55
2022/01/22 11:11:41;;;;;;;2.60;1.10;;;12.60;45.90;;;;;;216028;1293;24269;-53
2022/01/22 11:16:47;;;;;;;2.30;1.00;;;12.70;45.90;;;;;;215887;1293;22573;-55
2022/01/22 11:21:53;;;;;;;3.00;1.30;;;12.70;45.90;;;;;;215918;1293;24244;-57
2022/01/22 11:27:02;;;;;;;2.30;1.20;;;12.70;46.00;;;;;;215939;1293;24265;-55
2022/01/22 11:32:10;;;;;;;3.20;1.50;;;12.70;46.00;;;;;;215529;1293;22653;-55
2022/01/22 11:37:34;;;;;;;3.40;1.30;;;12.60;46.10;;;;;;216136;1293;22599;-56
2022/01/22 11:43:14;;;;;;;2.70;1.30;;;12.70;46.10;;;;;;215775;1293;22576;-56
2022/01/22 11:48:26;;;;;;;5.00;1.60;;;12.60;46.30;;;;;;215620;1293;25426;-56
2022/01/22 11:53:35;;;;;;;2.80;1.20;;;12.50;46.80;;;;;;215790;1293;24360;-55
2022/01/22 11:59:21;;;;;;;4.30;1.40;;;12.40;46.30;;;;;;215866;1293;25302;-57
2022/01/22 12:04:46;;;;;;;2.80;1.40;;;12.30;46.60;;;;;;215679;1293;23101;-56
2022/01/22 12:10:33;;;;;;;2.40;1.20;;;12.10;47.00;;;;;;216017;1293;25295;-55
2022/01/22 12:15:50;;;;;;;3.10;1.30;;;12.10;47.30;;;;;;215752;1293;22755;-56
2022/01/22 12:26:03;;;;;;;3.40;1.20;;;12.00;47.70;;;;;;215989;1293;22582;-55
2022/01/22 12:31:09;;;;;;;1.80;1.00;;;12.10;47.40;;;;;;215939;1293;22785;-56
2022/01/22 12:36:39;;;;;;;2.30;1.00;;;12.00;47.40;;;;;;216207;1293;22812;-58
2022/01/22 12:41:55;;;;;;;2.20;1.20;;;11.90;47.70;;;;;;215846;1293;22614;-55
2022/01/22 12:47:11;;;;;;;1.80;0.90;;;11.90;47.50;;;;;;215728;1293;24309;-56
2022/01/22 12:52:17;;;;;;;2.80;1.20;;;11.90;47.50;;;;;;216111;1293;22660;-56
2022/01/22 12:57:25;;;;;;;2.70;1.30;;;11.90;47.50;;;;;;215522;1293;24379;-54
2022/01/22 13:02:41;;;;;;;1.90;1.00;;;11.90;47.60;;;;;;215748;1293;22628;-53
2022/01/22 13:07:53;;;;;;;3.00;1.30;;;11.80;47.60;;;;;;215915;1293;22571;-56
2022/01/22 13:13:24;;;;;;;2.50;1.20;;;11.80;47.50;;;;;;215731;1293;22572;-54
2022/01/22 13:18:58;;;;;;;1.90;1.10;;;11.80;47.50;;;;;;216019;1293;22697;-56
2022/01/22 13:24:05;;;;;;;2.60;1.00;;;11.80;47.60;;;;;;215784;1293;22777;-52
2022/01/22 13:29:27;;;;;;;2.00;1.00;;;11.80;47.90;;;;;;215913;1293;22568;-55
2022/01/22 13:34:50;;;;;;;2.30;1.10;;;11.80;47.60;;;;;;215628;1293;25381;-57
2022/01/22 13:47:43;;;;;;;2.30;1.00;;;11.80;47.60;;;;;;215661;1293;24283;-56
2022/01/22 13:50:51;;;;;;;2.90;1.50;;;11.70;47.60;;;;;;215717;1292;22599;-55
2022/01/22 13:56:04;;;;;;;2.10;0.90;;;11.70;47.60;;;;;;216133;1293;24338;-59
2022/01/22 14:01:31;;;;;;;1.60;0.90;;;11.70;47.60;;;;;;215987;1293;25518;-56
2022/01/22 14:06:43;;;;;;;1.70;0.90;;;11.70;47.60;;;;;;215745;1293;23963;-54
2022/01/22 14:12:12;;;;;;;2.20;1.10;;;11.70;47.80;;;;;;215686;1293;24348;-54
2022/01/22 14:17:17;;;;;;;1.80;1.00;;;11.70;47.50;;;;;;215440;1296;25337;-56
2022/01/22 14:22:28;;;;;;;3.40;1.50;;;11.70;46.90;;;;;;215444;1296;26117;-57
2022/01/22 14:27:32;;;;;;;2.40;1.10;;;11.70;47.40;;;;;;215640;1293;24477;-59
2022/01/22 14:32:35;;;;;;;3.00;1.20;;;11.70;47.50;;;;;;215383;1294;23159;-59
2022/01/22 14:37:49;;;;;;;2.60;1.10;;;11.70;47.40;;;;;;215557;1293;24272;-55
2022/01/22 14:48:20;;;;;;;3.00;1.10;;;11.70;47.50;;;;;;215780;1293;22613;-57
2022/01/22 14:53:28;;;;;;;2.40;1.10;;;11.60;47.40;;;;;;215799;1293;25589;-56
2022/01/22 14:58:31;;;;;;;2.60;1.40;;;11.60;47.50;;;;;;215854;1293;22594;-57
2022/01/22 15:03:35;;;;;;;3.20;1.40;;;11.70;47.50;;;;;;215891;1293;24027;-54
2022/01/22 15:08:39;;;;;;;2.40;1.20;;;11.70;47.80;;;;;;216031;1293;22607;-57
2022/01/22 15:13:47;;;;;;;2.20;1.00;;;11.70;47.40;;;;;;215637;1293;24173;-54
2022/01/22 15:19:00;;;;;;;3.10;1.20;;;11.60;47.40;;;;;;215759;1292;24118;-56
2022/01/22 15:24:06;;;;;;;2.10;1.10;;;11.60;47.30;;;;;;215972;1293;25300;-56
2022/01/22 15:29:17;;;;;;;3.20;1.20;;;11.60;47.30;;;;;;215682;1293;22507;-57
2022/01/22 15:39:36;;;;;;;3.80;1.60;;;11.70;47.10;;;;;;215706;1292;25678;-56
2022/01/22 15:44:39;;;;;;;3.40;1.40;;;11.70;47.10;;;;;;216003;1293;22580;-53
2022/01/22 15:49:54;;;;;;;2.50;1.10;;;11.70;47.20;;;;;;215686;1293;24302;-57
2022/01/22 15:54:59;;;;;;;3.20;1.50;;;11.70;47.20;;;;;;215617;1293;24335;-56
2022/01/22 16:00:06;;;;;;;1.80;1.10;;;11.70;47.10;;;;;;216168;1293;24347;-54
2022/01/22 16:05:24;;;;;;;2.10;1.10;;;11.70;47.10;;;;;;215808;1293;25503;-54
2022/01/22 16:10:28;;;;;;;3.50;1.20;;;11.70;47.10;;;;;;215863;1293;25501;-58
2022/01/22 16:15:51;;;;;;;;;;;;;;;;;;;;;
2022/01/22 16:21:06;;;;;;;2.50;1.30;;;11.60;47.00;;;;;;216142;1293;24284;-55
2022/01/22 16:26:17;;;;;;;2.60;1.30;;;11.70;47.00;;;;;;215885;1293;25303;-53
2022/01/22 16:31:33;;;;;;;2.20;1.10;;;11.70;46.90;;;;;;215945;1293;24335;-57
2022/01/22 16:36:37;;;;;;;2.30;1.10;;;11.60;46.90;;;;;;215756;1293;22603;-56
2022/01/22 16:41:46;;;;;;;3.60;1.30;;;11.60;47.10;;;;;;215670;1293;22587;-56
2022/01/22 16:58:08;;;;;;;3.70;1.40;;;11.60;47.00;;;;;;215938;1293;24419;-55
2022/01/22 17:03:17;;;;;;;2.60;1.30;;;11.50;47.40;;;;;;215707;1292;24615;-56
2022/01/22 17:08:32;;;;;;;2.60;1.30;;;11.50;47.10;;;;;;215940;1293;22580;-56
2022/01/22 17:19:00;;;;;;;2.20;1.30;;;11.50;46.90;;;;;;215433;1296;22627;-57
2022/01/22 17:24:04;;;;;;;2.50;1.30;;;11.50;47.00;;;;;;215625;1293;22895;-56
2022/01/22 17:29:17;;;;;;;3.30;1.50;;;11.50;47.30;;;;;;215651;1293;22570;-55
2022/01/22 17:34:22;;;;;;;3.20;1.20;;;11.40;47.00;;;;;;215777;1293;22633;-56
2022/01/22 17:39:28;;;;;;;2.50;1.40;;;11.50;47.00;;;;;;215814;1293;22603;-56
2022/01/22 17:44:33;;;;;;;3.60;1.20;;;11.50;46.90;;;;;;215607;1293;26415;-54
2022/01/22 17:49:37;;;;;;;2.80;1.10;;;11.40;47.10;;;;;;215708;1293;22838;-56
2022/01/22 17:54:43;;;;;;;3.30;1.60;;;11.40;47.10;;;;;;214511;1293;1763546;-56
2022/01/22 17:59:51;;;;;;;4.20;1.90;;;11.30;47.30;;;;;;215642;1293;23513;-57
2022/01/22 18:04:59;;;;;;;3.70;1.60;;;11.40;47.20;;;;;;215957;1293;24638;-56
2022/01/22 18:10:04;;;;;;;3.70;1.80;;;11.40;47.10;;;;;;215926;1292;22732;-57
2022/01/22 18:15:10;;;;;;;4.00;1.90;;;11.40;47.00;;;;;;215859;1292;22976;-54
2022/01/22 18:20:17;;;;;;;4.40;2.00;;;11.40;47.40;;;;;;215687;1292;22741;-57
2022/01/22 18:25:23;;;;;;;4.10;2.00;;;11.40;47.00;;;;;;215711;1293;25280;-53
2022/01/22 18:30:28;;;;;;;5.10;2.20;;;11.30;47.10;;;;;;215989;1293;22608;-53
2022/01/22 18:35:32;;;;;;;4.80;2.30;;;11.30;47.00;;;;;;216054;1293;22580;-56
2022/01/22 18:40:38;;;;;;;4.80;2.30;;;11.30;47.10;;;;;;216132;1293;22632;-55
2022/01/22 18:45:42;;;;;;;4.60;2.00;;;11.30;47.10;;;;;;216155;1292;24265;-56
2022/01/22 18:50:48;;;;;;;4.50;1.90;;;11.30;47.20;;;;;;215698;1292;25426;-55
2022/01/22 18:55:52;;;;;;;4.90;2.00;;;11.30;47.30;;;;;;215673;1293;24511;-55
2022/01/22 19:01:05;;;;;;;5.00;2.60;;;11.30;47.80;;;;;;216041;1293;22728;-57
2022/01/22 19:06:12;;;;;;;3.70;2.20;;;11.20;47.10;;;;;;215932;1293;24301;-58
2022/01/22 19:11:16;;;;;;;5.00;2.60;;;11.20;47.30;;;;;;215893;1293;22631;-57
2022/01/22 19:16:25;;;;;;;5.80;2.90;;;11.20;47.10;;;;;;215419;1293;24056;-57
2022/01/22 19:21:44;;;;;;;6.80;2.70;;;11.20;47.50;;;;;;215512;1296;24320;-57
2022/01/22 19:32:10;;;;;;;6.50;3.00;;;11.10;47.20;;;;;;215697;1293;24782;-56
2022/01/22 19:37:17;;;;;;;5.20;2.20;;;11.20;47.00;;;;;;215776;1293;22659;-56
2022/01/22 19:42:29;;;;;;;6.00;2.90;;;11.10;47.10;;;;;;215881;1293;25527;-57
2022/01/22 19:47:42;;;;;;;5.70;2.60;;;11.10;47.40;;;;;;215795;1293;24309;-54
2022/01/22 19:53:01;;;;;;;6.60;3.40;;;11.10;47.20;;;;;;215641;1293;23209;-55
2022/01/22 19:58:30;;;;;;;5.20;2.50;;;11.10;47.20;;;;;;215744;1293;25376;-59
2022/01/22 20:03:49;;;;;;;5.40;2.70;;;11.10;47.10;;;;;;215793;1293;25696;-57
2022/01/22 20:09:12;;;;;;;6.60;2.80;;;11.10;47.20;;;;;;215664;1293;24809;-56
2022/01/22 20:14:34;;;;;;;6.30;3.40;;;11.10;47.20;;;;;;215661;1293;24005;-55
2022/01/22 20:19:39;;;;;;;6.90;3.20;;;11.10;47.50;;;;;;215753;1293;22775;-55
2022/01/22 20:25:14;;;;;;;5.30;2.80;;;11.10;47.20;;;;;;215832;1293;24462;-56
2022/01/22 20:30:27;;;;;;;7.00;3.50;;;11.20;47.40;;;;;;215686;1293;22630;-59
2022/01/22 20:35:42;;;;;;;7.40;3.30;;;11.20;46.90;;;;;;215511;1293;24297;-57
2022/01/22 20:41:03;;;;;;;6.40;2.90;;;11.10;47.20;;;;;;215547;1293;22573;-57
2022/01/22 20:46:35;;;;;;;8.00;3.80;;;11.00;47.20;;;;;;215793;1293;24350;-56
2022/01/22 20:51:44;;;;;;;7.30;3.20;;;11.00;47.30;;;;;;216231;1293;24329;-55
2022/01/22 20:56:57;;;;;;;8.70;3.50;;;11.00;47.10;;;;;;215831;1293;22597;-53
2022/01/22 21:02:25;;;;;;;7.30;3.50;;;11.00;47.20;;;;;;215618;1293;23959;-55
2022/01/22 21:07:30;;;;;;;7.40;3.40;;;10.90;47.60;;;;;;215928;1293;24365;-56
2022/01/22 21:12:41;;;;;;;7.80;3.40;;;10.90;47.30;;;;;;215565;1293;25369;-57
2022/01/22 21:17:51;;;;;;;9.80;4.20;;;11.00;47.20;;;;;;215536;1293;24302;-56
2022/01/22 21:22:55;;;;;;;9.40;4.40;;;11.00;47.20;;;;;;215722;1293;22618;-59
2022/01/22 21:28:00;;;;;;;7.10;3.50;;;11.00;47.40;;;;;;215692;1293;25360;-56
2022/01/22 21:33:05;;;;;;;7.00;3.70;;;11.00;47.20;;;;;;215811;1293;25007;-53
2022/01/22 21:44:11;;;;;;;8.10;4.10;;;10.90;47.10;;;;;;215860;1293;22615;-52
2022/01/22 21:49:18;;;;;;;8.20;4.00;;;10.90;47.20;;;;;;215934;1296;24267;-54
2022/01/22 21:54:27;;;;;;;9.10;4.90;;;11.00;47.10;;;;;;216071;1294;24971;-58
2022/01/22 21:59:34;;;;;;;9.00;5.00;;;11.00;47.10;;;;;;215641;1294;22602;-55
2022/01/22 22:04:41;;;;;;;9.30;4.80;;;11.00;47.00;;;;;;215668;1293;25309;-56
2022/01/22 22:09:55;;;;;;;9.60;4.60;;;11.00;47.00;;;;;;215784;1294;25067;-58
2022/01/22 22:15:02;;;;;;;9.50;5.10;;;10.90;47.10;;;;;;215501;1293;24303;-56
2022/01/22 22:20:07;;;;;;;10.90;5.30;;;10.90;47.10;;;;;;215608;1293;25461;-56
2022/01/22 22:25:14;;;;;;;12.30;5.30;;;10.90;46.70;;;;;;215805;1294;22577;-53
2022/01/22 22:30:20;;;;;;;12.20;5.90;;;10.90;47.00;;;;;;216052;1294;22611;-57
2022/01/22 22:35:24;;;;;;;10.80;5.90;;;10.90;47.20;;;;;;215623;1293;25017;-57
2022/01/22 22:40:28;;;;;;;12.60;5.80;;;10.90;47.20;;;;;;215605;1293;22618;-57
2022/01/22 22:45:33;;;;;;;11.30;5.80;;;10.90;47.20;;;;;;215771;1293;22609;-57
2022/01/22 22:50:37;;;;;;;11.10;5.60;;;10.90;47.30;;;;;;215610;1293;24328;-57
2022/01/22 22:55:43;;;;;;;12.10;6.10;;;10.80;47.20;;;;;;215786;1293;22836;-56
2022/01/22 23:00:58;;;;;;;13.80;5.50;;;10.80;47.50;;;;;;215571;1292;24315;-56
2022/01/22 23:06:05;;;;;;;12.60;5.90;;;10.80;47.50;;;;;;215782;1293;24498;-53
2022/01/22 23:11:12;;;;;;;11.90;6.00;;;10.80;47.30;;;;;;215840;1293;22583;-56
2022/01/22 23:16:22;;;;;;;15.40;7.40;;;10.80;47.10;;;;;;215456;1297;26552;-56
2022/01/22 23:21:43;;;;;;;12.20;7.00;;;10.90;47.50;;;;;;215561;1293;22567;-54
2022/01/22 23:26:48;;;;;;;;;;;10.80;47.20;;;;;;215555;1293;22711;-57
2022/01/22 23:31:54;;;;;;;15.60;6.50;;;10.90;47.20;;;;;;215703;1293;24639;-58
2022/01/22 23:58:26;;;;;;;;;;;10.70;47.20;;;;;;215746;1293;22569;-56
